• Join FlightAware (Why Join?)
  • Login
  • US Flag 
08:07AM EDT


 

Airport Tracker/Info


-or-


 

Live Flight TrackerFlight Track Log ✈ EJA829P ✈ 19-Jul-2013 ✈ KMGN - KDSM

Flight Track Log - Related Links

Times and Time Zones

All times are in EDT time to prevent confusion due to time zone crossing. See the EJA829P flight status page for this flight to view local times or setup timezone preferences in your user account.

Time Position Orientation Groundspeed Altitude Reporting Facility
EDT Latitude Longitude Course Direction KTS MPH feet Rate Location/Type
01:46PM 45.4272 -84.9917 252° West 190 219 2,800  Level Minneapolis Center
01:47PM 45.4025 -85.0917 251° West 222 255 6,200 3,480 Climbing Minneapolis Center
01:48PM 45.3794 -85.1842 250° West 235 270 10,100 3,060 Climbing Minneapolis Center
01:49PM 45.3556 -85.2767 250° West 243 280 13,200 2,880 Climbing Minneapolis Center
01:50PM 45.3233 -85.3925 248° West 259 298 16,700 3,120 Climbing Minneapolis Center
01:51PM 45.2400 -85.6211 252° West  Level FlightAware Approximate
01:51PM 45.2983 -85.4931 251° West 269 310 19,700  Level Minneapolis Center
01:52PM 45.2667 -85.6139 250° West 273 314 22,200 2,160 Climbing Minneapolis Center
01:53PM 45.2383 -85.7231 250° West 291 335 24,200 1,740 Climbing Minneapolis Center
01:54PM 45.2094 -85.8322 249° West 295 339 25,900 1,620 Climbing Minneapolis Center
01:55PM 45.1806 -85.9431 250° West 301 346 27,600 1,620 Climbing Minneapolis Center
01:56PM 45.1525 -86.0472 249° West 303 349 29,300 1,680 Climbing Minneapolis Center
01:57PM 45.1164 -86.1811 249° West 303 349 31,100 1,560 Climbing Minneapolis Center
01:58PM 45.0864 -86.2931 249° West 305 351 32,600 1,440 Climbing Minneapolis Center
01:59PM 45.0550 -86.4075 249° West 310 357 34,100 1,380 Climbing Minneapolis Center
02:00PM 45.0253 -86.5219 250° West 311 358 35,500 1,140 Climbing Minneapolis Center
02:01PM 44.9944 -86.6356 249° West 311 358 36,500 960 Climbing Minneapolis Center
02:02PM 44.9550 -86.7794 249° West 320 368 37,600 720 Climbing Minneapolis Center
02:03PM 44.9222 -86.8978 249° West 325 374 38,000 120 Climbing Minneapolis Center
02:05PM 44.8869 -87.0256 249° West 342 394 38,000  Level Minneapolis Center
02:06PM 44.8433 -87.1836 249° West 358 412 38,000  Level Minneapolis Center
02:07PM 44.8058 -87.3153 248° West 362 417 38,000  Level Minneapolis Center
02:08PM 44.7689 -87.4469 248° West 364 419 38,000  Level Minneapolis Center
02:09PM 44.7239 -87.6053 248° West 365 420 38,000  Level Minneapolis Center
02:10PM 44.6864 -87.7383 248° West 367 422 38,000  Level Minneapolis Center
02:11PM 44.6489 -87.8714 248° West 368 423 38,000  Level Minneapolis Center
02:12PM 44.6100 -88.0003 247° West 365 420 38,000  Level Minneapolis Center
02:13PM 44.5656 -88.1561 248° West 368 423 38,000  Level Minneapolis Center
02:14PM 44.5053 -88.2742 234° Southwest 372 428 38,000  Level Minneapolis Center
02:15PM 44.4017 -88.4392 229° Southwest 376 433 38,000  Level Minneapolis Center
02:17PM 44.3328 -88.5489 229° Southwest 377 434 38,000  Level Minneapolis Center
02:18PM 44.2636 -88.6594 229° Southwest 378 435 38,000  Level Minneapolis Center
02:19PM 44.1939 -88.7714 229° Southwest 383 441 38,000  Level Minneapolis Center
02:20PM 44.1239 -88.8811 228° Southwest 380 437 38,000  Level Minneapolis Center
02:21PM 44.0419 -89.0078 228° Southwest 380 437 38,000  Level Minneapolis Center
02:22PM 43.9719 -89.1181 229° Southwest 381 438 38,000  Level Minneapolis Center
02:23PM 43.9019 -89.2278 228° Southwest 382 440 38,000  Level Minneapolis Center
02:24PM 43.8297 -89.3364 227° Southwest 383 441 38,000  Level Minneapolis Center
02:25PM 43.7581 -89.4461 228° Southwest 385 443 38,000  Level Minneapolis Center
02:26PM 43.6761 -89.5747 229° Southwest 384 442 38,000  Level Minneapolis Center
02:27PM 43.6022 -89.6853 227° Southwest 389 448 38,000  Level Minneapolis Center
02:28PM 43.5353 -89.8008 231° Southwest 388 447 38,000  Level Minneapolis Center
02:29PM 43.4897 -89.9328 245° Southwest 383 441 38,000  Level Minneapolis Center
02:30PM 43.4411 -90.0636 243° Southwest 385 443 38,000  Level Minneapolis Center
02:31PM 43.3847 -90.2156 243° Southwest 385 443 38,000  Level Minneapolis Center
02:32PM 43.3444 -90.3292 244° Southwest 382 440 38,000  Level Minneapolis Center
02:33PM 43.2961 -90.4597 243° Southwest 385 443 38,000  Level Minneapolis Center
02:34PM 43.2386 -90.6144 243° Southwest 383 441 38,000  Level Minneapolis Center
02:35PM 43.1903 -90.7450 243° Southwest 387 445 38,000  Level Minneapolis Center
02:36PM 43.1411 -90.8753 243° Southwest 388 447 38,000  Level Minneapolis Center
02:37PM 43.0925 -91.0047 243° Southwest 388 447 38,000  Level Minneapolis Center
02:38PM 43.0633 -91.0844 243° Southwest 390 449 38,000  Level Chicago Center
02:39PM 43.0147 -91.2136 243° Southwest 388 447 38,000  Level Chicago Center
02:40PM 42.9567 -91.3700 243° Southwest 389 448 38,000  Level Chicago Center
02:41PM 42.9075 -91.4997 243° Southwest 391 450 38,000  Level Chicago Center
02:42PM 42.8503 -91.6400 241° Southwest 397 457 38,000  Level Chicago Center
02:43PM 42.7989 -91.7853 244° Southwest 409 471 38,000  Level Chicago Center
02:44PM 42.7475 -91.9100 241° Southwest 394 453 38,000  Level Chicago Center
02:45PM 42.6967 -92.0394 242° Southwest 393 452 38,000 -540 Level Chicago Center
02:46PM 42.6461 -92.1678 242° Southwest 390 449 36,900 -1,260 Descending Chicago Center
02:47PM 42.5878 -92.3169 242° Southwest 379 436 35,400 -1,320 Descending Chicago Center
02:48PM 42.5264 -92.4383 236° Southwest 399 459 34,200 -720 Descending Chicago Center
02:49PM 42.4442 -92.5397 222° Southwest 405 466 34,000 -240 Descending Chicago Center
02:50PM 42.3636 -92.6414 223° Southwest 400 460 33,800 -1,020 Descending Chicago Center
02:51PM 42.2836 -92.7414 223° Southwest 397 457 32,000 -2,340 Descending Chicago Center
02:52PM 42.1867 -92.8622 223° Southwest 401 461 29,000 -2,820 Descending Chicago Center
02:53PM 42.1031 -92.9653 222° Southwest 411 473 26,200 -2,820 Descending Chicago Center
02:54PM 42.0217 -93.0667 223° Southwest 406 467 23,200 -2,820 Descending Chicago Center
02:55PM 41.9425 -93.1639 222° Southwest 392 451 20,400 -3,060 Descending Chicago Center
02:56PM 41.8719 -93.2536 223° Southwest 362 417 16,900 -3,720 Descending Chicago Center
02:57PM 41.7939 -93.3461 221° Southwest 322 371 12,800 -3,480 Descending Chicago Center
02:58PM 41.7328 -93.4206 222° Southwest 305 351 9,700 -2,760 Descending Chicago Center
03:00PM 41.6806 -93.4842 222° Southwest 282 325 7,100 -2,100 Descending Chicago Center
03:01PM 41.6164 -93.5458 216° Southwest 262 302 5,400 -2,340 Descending Chicago Center
03:02PM 41.5669 -93.6003 219° Southwest 199 229 2,000 -1,680 Descending Minneapolis Center
03:03PM 41.5364 -93.6553 233° Southwest 119 137 900 -720 Descending Minneapolis Center
03:05PM 41.5333 -93.6500 236° Southwest  Level FlightAware Approximate